Terminal Aerodrome Forecast
Issued by NWS

Home | Current Version | Previous Version | Text Only | Print | Product List | Glossary On
Versions: 1 2 3 4 5 6 7 8 9 10 11 12 13 14
380
FTUS45 KTFX 250520
TAFGTF
TAF
KGTF 250520Z 2506/2606 20012G22KT P6SM SKC
     FM251600 27016G26KT P6SM FEW070 FEW250
     FM252000 31013G23KT P6SM FEW060 SCT090
     FM252300 36013KT P6SM BKN050
     FM260200 36008KT P6SM FEW035 SCT250=

USA.gov is the U.S. government's official web portal to all federal, state and local government web resources and services.